createdAt,value
2017-07-25T00:01:23.208Z,87.30
2017-07-25T00:03:50.716Z,87.20
2017-07-25T00:06:18.196Z,86.90
2017-07-25T00:08:45.691Z,86.90
2017-07-25T00:11:13.180Z,87.20
2017-07-25T00:13:40.692Z,87.30
2017-07-25T00:16:08.175Z,88.00
2017-07-25T00:18:35.671Z,88.00
2017-07-25T00:21:03.149Z,87.90
2017-07-25T00:23:30.663Z,88.00
2017-07-25T00:25:58.147Z,87.90
2017-07-25T00:28:26.391Z,88.00
2017-07-25T00:30:53.888Z,87.80
2017-07-25T00:33:21.365Z,88.20
2017-07-25T00:35:48.859Z,88.30
2017-07-25T00:38:16.335Z,88.60
2017-07-25T00:40:43.832Z,88.30
2017-07-25T00:43:11.315Z,88.40
2017-07-25T00:45:38.816Z,88.00
2017-07-25T00:48:06.308Z,88.00
2017-07-25T00:50:33.813Z,87.80
2017-07-25T00:53:01.293Z,87.70
2017-07-25T00:55:28.787Z,87.70
2017-07-25T00:57:56.267Z,87.50
2017-07-25T01:00:23.767Z,87.40
2017-07-25T01:02:51.240Z,87.00
2017-07-25T01:05:18.748Z,87.50
2017-07-25T01:07:46.245Z,87.20
2017-07-25T01:10:13.740Z,88.20
2017-07-25T01:12:41.212Z,88.60
2017-07-25T01:15:08.695Z,88.60
2017-07-25T01:17:36.197Z,88.10
2017-07-25T01:20:03.679Z,87.50
2017-07-25T01:22:31.183Z,87.70
2017-07-25T01:24:58.656Z,87.50
2017-07-25T01:27:26.151Z,87.60
2017-07-25T01:29:53.639Z,87.30
2017-07-25T01:32:21.149Z,87.40
2017-07-25T01:34:48.632Z,87.30
2017-07-25T01:37:16.128Z,87.30
2017-07-25T01:39:43.612Z,87.20
2017-07-25T01:42:11.108Z,87.00
2017-07-25T01:44:38.588Z,86.90
2017-07-25T01:47:06.102Z,86.80
2017-07-25T01:49:33.583Z,86.90
2017-07-25T01:52:01.092Z,86.90
2017-07-25T01:54:28.570Z,87.20
2017-07-25T01:56:56.072Z,86.90
2017-07-25T01:59:23.564Z,86.70
2017-07-25T02:01:51.124Z,87.00
2017-07-25T02:04:18.655Z,86.50
2017-07-25T02:06:46.899Z,86.30
2017-07-25T02:09:14.396Z,86.30
2017-07-25T02:11:41.876Z,86.30
2017-07-25T02:14:09.378Z,86.10
2017-07-25T02:16:36.859Z,86.00
2017-07-25T02:19:04.359Z,86.00
2017-07-25T02:21:31.836Z,86.10
2017-07-25T02:23:59.341Z,86.20
2017-07-25T02:26:26.823Z,86.20
2017-07-25T02:28:54.319Z,86.10
2017-07-25T02:31:21.803Z,85.90
2017-07-25T02:33:49.325Z,86.00
2017-07-25T02:36:16.809Z,86.40
2017-07-25T02:38:44.292Z,86.90
2017-07-25T02:41:11.797Z,86.90
2017-07-25T02:43:39.282Z,86.50
2017-07-25T02:46:06.775Z,86.90
2017-07-25T02:48:34.253Z,87.50
2017-07-25T02:51:01.760Z,87.00
2017-07-25T02:53:29.244Z,87.40
2017-07-25T02:55:56.743Z,87.40
2017-07-25T02:58:24.223Z,88.00
2017-07-25T03:00:51.727Z,87.50
2017-07-25T03:03:19.207Z,87.40
2017-07-25T03:05:46.699Z,87.40
2017-07-25T03:08:14.183Z,87.50
2017-07-25T03:10:41.678Z,87.20
2017-07-25T03:13:09.176Z,87.60
2017-07-25T03:15:36.687Z,87.50
2017-07-25T03:18:04.164Z,87.90
2017-07-25T03:20:31.647Z,87.50
2017-07-25T03:23:21.608Z,87.30
2017-07-25T03:25:49.104Z,87.60
2017-07-25T03:28:16.584Z,87.90
2017-07-25T03:30:44.087Z,87.40
2017-07-25T03:33:11.579Z,87.30
2017-07-25T03:35:39.062Z,87.60
2017-07-25T03:38:07.329Z,87.80
2017-07-25T03:40:35.576Z,87.90
2017-07-25T03:43:03.839Z,88.10
2017-07-25T03:45:31.316Z,87.70
2017-07-25T03:47:58.813Z,87.90
2017-07-25T03:50:26.296Z,87.60
2017-07-25T03:52:53.795Z,87.60
2017-07-25T03:55:21.281Z,87.50
2017-07-25T03:57:48.784Z,87.00
2017-07-25T04:00:16.260Z,87.50
2017-07-25T04:02:43.763Z,87.10
2017-07-25T04:05:11.240Z,87.30
2017-07-25T04:07:38.740Z,87.40
2017-07-25T04:10:06.223Z,87.40
2017-07-25T04:12:33.732Z,87.50
2017-07-25T04:15:01.984Z,88.10
2017-07-25T04:17:29.473Z,87.20
2017-07-25T04:19:56.985Z,87.40
2017-07-25T04:22:25.232Z,87.90
2017-07-25T04:24:52.748Z,87.20
2017-07-25T04:27:20.228Z,87.30
2017-07-25T04:29:48.503Z,87.90
2017-07-25T04:32:16.752Z,87.40
2017-07-25T04:34:44.276Z,87.30
2017-07-25T04:37:11.754Z,87.60
2017-07-25T04:39:39.254Z,87.30
2017-07-25T04:42:06.744Z,87.20
2017-07-25T04:44:34.239Z,87.60
2017-07-25T04:47:01.718Z,87.60
2017-07-25T04:49:29.223Z,87.30
2017-07-25T04:51:56.696Z,87.30
2017-07-25T04:54:24.196Z,87.40
2017-07-25T04:56:51.683Z,87.50
2017-07-25T04:59:19.953Z,87.80
2017-07-25T05:01:47.439Z,87.80
2017-07-25T05:04:14.922Z,87.70
2017-07-25T05:06:43.196Z,87.80
2017-07-25T05:09:10.680Z,87.60
2017-07-25T05:11:38.187Z,88.70
2017-07-25T05:14:05.674Z,88.30
2017-07-25T05:16:33.197Z,88.10
2017-07-25T05:19:00.691Z,88.00
2017-07-25T05:21:28.192Z,88.20
2017-07-25T05:23:55.674Z,88.50
2017-07-25T05:26:23.949Z,88.00
2017-07-25T05:28:51.440Z,87.90
2017-07-25T05:31:18.936Z,87.80
2017-07-25T05:33:46.418Z,88.00
2017-07-25T05:36:13.928Z,88.10
2017-07-25T05:38:41.416Z,88.60
2017-07-25T05:41:08.919Z,89.30
2017-07-25T05:43:36.395Z,89.80
2017-07-25T05:46:03.891Z,89.60
2017-07-25T05:48:31.388Z,90.40
2017-07-25T05:50:58.883Z,90.10
2017-07-25T05:53:26.356Z,90.20
2017-07-25T05:55:53.849Z,90.10
2017-07-25T05:58:21.368Z,90.30
2017-07-25T06:00:48.849Z,90.40
2017-07-25T06:03:16.359Z,90.40
2017-07-25T06:05:43.846Z,90.40
2017-07-25T06:08:11.340Z,90.20
2017-07-25T06:10:38.823Z,90.20
2017-07-25T06:13:06.335Z,90.50
2017-07-25T06:15:33.816Z,90.50
2017-07-25T06:18:01.320Z,90.60
2017-07-25T06:20:28.819Z,90.60
2017-07-25T06:22:56.339Z,90.60
2017-07-25T06:25:23.828Z,90.90
2017-07-25T06:27:51.303Z,90.70
2017-07-25T06:30:18.815Z,90.90
2017-07-25T06:32:46.297Z,90.70
2017-07-25T06:35:13.795Z,90.80
2017-07-25T06:37:41.274Z,91.10
2017-07-25T06:40:09.543Z,90.90
2017-07-25T06:42:37.025Z,90.80
2017-07-25T06:45:04.524Z,91.00
2017-07-25T06:47:31.999Z,91.10
2017-07-25T06:49:59.511Z,91.00
2017-07-25T06:52:26.998Z,91.30
2017-07-25T06:54:54.497Z,90.90
2017-07-25T06:57:21.980Z,91.40
2017-07-25T06:59:49.479Z,91.30
2017-07-25T07:02:16.967Z,91.60
2017-07-25T07:04:44.459Z,91.70
2017-07-25T07:07:12.696Z,91.80
2017-07-25T07:09:40.213Z,91.80
2017-07-25T07:12:07.719Z,91.90
2017-07-25T07:14:35.203Z,92.10
2017-07-25T07:17:02.707Z,92.40
2017-07-25T07:19:30.183Z,92.30
2017-07-25T07:21:57.696Z,92.40
2017-07-25T07:24:25.172Z,92.50
2017-07-25T07:26:52.668Z,92.50
2017-07-25T07:29:20.176Z,92.70
2017-07-25T07:31:47.668Z,92.70
2017-07-25T07:34:15.147Z,92.60
2017-07-25T07:36:42.663Z,92.20
2017-07-25T07:39:10.143Z,92.40
2017-07-25T07:41:37.640Z,92.30
2017-07-25T07:44:05.127Z,92.10
2017-07-25T07:46:32.624Z,92.20
2017-07-25T07:49:00.100Z,92.40
2017-07-25T07:51:27.615Z,91.90
2017-07-25T07:53:55.095Z,92.10
2017-07-25T07:56:22.576Z,92.20
2017-07-25T07:58:50.071Z,92.20
2017-07-25T08:01:17.551Z,92.40
2017-07-25T08:03:45.051Z,92.20
2017-07-25T08:06:12.531Z,92.40
2017-07-25T08:08:40.796Z,92.10
2017-07-25T08:11:08.280Z,92.10
2017-07-25T08:13:35.787Z,92.30
2017-07-25T08:16:03.269Z,92.40
2017-07-25T08:18:30.778Z,92.20
2017-07-25T08:20:58.248Z,92.30
2017-07-25T08:23:25.755Z,92.30
2017-07-25T08:25:53.235Z,92.00
2017-07-25T08:28:20.749Z,92.00
2017-07-25T08:30:48.228Z,91.90
2017-07-25T08:33:15.731Z,92.00
2017-07-25T08:35:43.215Z,91.90
2017-07-25T08:38:10.720Z,92.00
2017-07-25T08:40:38.195Z,91.80
2017-07-25T08:43:05.715Z,92.10
2017-07-25T08:45:33.187Z,92.00
2017-07-25T08:48:00.670Z,92.10
2017-07-25T08:50:28.180Z,92.10
2017-07-25T08:52:55.664Z,91.90
2017-07-25T08:55:23.155Z,91.70
2017-07-25T08:57:50.638Z,91.80
2017-07-25T09:00:18.142Z,91.90
2017-07-25T09:02:45.624Z,91.90
2017-07-25T09:05:13.135Z,92.10
2017-07-25T09:07:40.612Z,92.30
2017-07-25T09:10:08.112Z,92.20
2017-07-25T09:12:35.602Z,92.40
2017-07-25T09:15:03.107Z,92.60
2017-07-25T09:17:30.586Z,92.40
2017-07-25T09:19:58.083Z,92.50
2017-07-25T09:22:25.563Z,92.70
2017-07-25T09:24:53.083Z,92.80
2017-07-25T09:27:20.576Z,92.80
2017-07-25T09:29:48.066Z,92.80
2017-07-25T09:32:15.567Z,92.90
2017-07-25T09:34:43.053Z,93.00
2017-07-25T09:37:11.319Z,93.30
2017-07-25T09:39:39.567Z,93.00
2017-07-25T09:42:07.071Z,93.00
2017-07-25T09:44:34.559Z,93.20
2017-07-25T09:47:02.080Z,93.10
2017-07-25T09:49:29.568Z,93.00
2017-07-25T09:51:57.086Z,93.20
2017-07-25T09:54:24.568Z,93.30
2017-07-25T09:56:52.072Z,93.60
2017-07-25T09:59:19.547Z,93.20
2017-07-25T10:01:47.028Z,93.20
2017-07-25T10:04:14.519Z,93.20
2017-07-25T10:06:42.769Z,93.40
2017-07-25T10:09:11.044Z,93.40
2017-07-25T10:11:38.531Z,93.40
2017-07-25T10:14:06.018Z,93.50
2017-07-25T10:16:33.510Z,93.40
2017-07-25T10:19:01.015Z,93.40
2017-07-25T10:21:28.499Z,93.20
2017-07-25T10:23:55.999Z,93.20
2017-07-25T10:26:23.488Z,93.40
2017-07-25T10:28:50.987Z,93.50
2017-07-25T10:31:18.515Z,93.50
2017-07-25T10:33:46.760Z,93.50
2017-07-25T10:36:14.252Z,93.50
2017-07-25T10:38:41.740Z,93.60
2017-07-25T10:41:09.239Z,93.80
2017-07-25T10:43:36.712Z,93.60
2017-07-25T10:46:04.224Z,93.50
2017-07-25T10:48:31.708Z,93.70
2017-07-25T10:50:59.216Z,94.10
2017-07-25T10:53:26.692Z,93.80
2017-07-25T10:55:54.189Z,94.10
2017-07-25T10:58:21.669Z,94.20
2017-07-25T11:00:49.167Z,94.10
2017-07-25T11:03:16.643Z,93.80
2017-07-25T11:05:44.137Z,94.30
2017-07-25T11:08:11.622Z,94.30
2017-07-25T11:10:39.104Z,94.30
2017-07-25T11:13:06.609Z,94.10
2017-07-25T11:15:34.097Z,94.30
2017-07-25T11:18:01.606Z,94.50
2017-07-25T11:20:29.093Z,94.50
2017-07-25T11:22:56.592Z,94.60
2017-07-25T11:25:24.072Z,94.40
2017-07-25T11:27:51.576Z,94.40
2017-07-25T11:30:19.059Z,94.50
2017-07-25T11:32:46.559Z,94.40
2017-07-25T11:35:14.039Z,94.70
2017-07-25T11:37:41.539Z,94.90
2017-07-25T11:40:09.011Z,94.70
2017-07-25T11:42:36.530Z,94.70
2017-07-25T11:45:04.017Z,94.70
2017-07-25T11:47:31.500Z,94.80
2017-07-25T11:49:59.003Z,94.90
2017-07-25T11:52:26.478Z,94.90
2017-07-25T11:54:53.972Z,95.00
2017-07-25T11:57:21.453Z,94.80
2017-07-25T11:59:48.957Z,94.90
2017-07-25T12:02:17.204Z,94.30
2017-07-25T12:04:44.707Z,94.30
2017-07-25T12:07:12.184Z,94.50
2017-07-25T12:09:40.455Z,95.10
2017-07-25T12:12:08.700Z,94.70
2017-07-25T12:14:36.196Z,94.70
2017-07-25T12:17:03.670Z,94.50
2017-07-25T12:19:31.172Z,94.90
2017-07-25T12:21:58.656Z,94.70
2017-07-25T12:24:27.000Z,94.90
2017-07-25T12:26:54.613Z,94.90
2017-07-25T12:29:22.115Z,94.90
2017-07-25T12:31:49.620Z,95.00
2017-07-25T12:34:17.100Z,94.80
2017-07-25T12:36:44.603Z,95.00
2017-07-25T12:39:12.085Z,94.90
2017-07-25T12:41:39.580Z,95.00
2017-07-25T12:44:07.059Z,94.90
2017-07-25T12:46:34.573Z,94.80
2017-07-25T12:49:02.055Z,94.70
2017-07-25T12:51:29.561Z,94.60
2017-07-25T12:53:57.043Z,94.50
2017-07-25T12:56:24.560Z,94.80
2017-07-25T12:58:52.040Z,94.30
2017-07-25T13:01:32.245Z,94.20
2017-07-25T13:03:59.728Z,94.20
2017-07-25T13:06:27.224Z,94.30
2017-07-25T13:08:54.727Z,94.10
2017-07-25T13:11:22.812Z,93.90
2017-07-25T13:13:50.303Z,93.90
2017-07-25T13:16:17.781Z,93.80
2017-07-25T13:18:45.312Z,94.10
2017-07-25T13:21:12.807Z,94.30
2017-07-25T13:23:40.305Z,94.40
2017-07-25T13:26:08.568Z,94.60
2017-07-25T13:28:36.742Z,94.80
2017-07-25T13:31:04.231Z,94.70
2017-07-25T13:33:31.739Z,94.50
2017-07-25T13:35:59.679Z,94.80
2017-07-25T13:38:28.003Z,94.60
2017-07-25T13:40:55.488Z,94.90
2017-07-25T13:43:22.992Z,94.60
2017-07-25T13:45:50.477Z,94.60
2017-07-25T13:48:17.982Z,94.50
2017-07-25T13:50:45.460Z,94.60
2017-07-25T13:53:13.008Z,95.30
2017-07-25T13:55:40.492Z,94.70
2017-07-25T13:58:08.792Z,94.50
2017-07-25T14:00:36.292Z,94.50
2017-07-25T14:03:05.088Z,94.60
2017-07-25T14:05:32.585Z,94.60
2017-07-25T14:08:00.067Z,94.70
2017-07-25T14:10:27.568Z,94.60
2017-07-25T14:12:55.052Z,94.60
2017-07-25T14:15:22.559Z,94.10
2017-07-25T14:17:50.048Z,94.10
2017-07-25T14:20:17.559Z,94.20
2017-07-25T14:22:45.045Z,93.90
2017-07-25T14:25:12.547Z,93.90
2017-07-25T14:27:40.052Z,93.50
2017-07-25T14:30:07.560Z,93.70
2017-07-25T14:32:35.044Z,93.60
2017-07-25T14:35:02.545Z,94.20
2017-07-25T14:37:30.036Z,94.10
2017-07-25T14:39:57.539Z,93.90
2017-07-25T14:42:25.020Z,94.00
2017-07-25T14:44:52.525Z,94.10
2017-07-25T14:47:20.008Z,94.50
2017-07-25T14:49:47.481Z,94.40
2017-07-25T14:52:14.992Z,94.50
2017-07-25T14:54:42.475Z,94.60
2017-07-25T14:57:09.971Z,94.60
2017-07-25T14:59:37.460Z,94.70
2017-07-25T15:02:05.041Z,94.90
2017-07-25T15:04:32.536Z,95.10
2017-07-25T15:07:00.055Z,95.20
2017-07-25T15:09:27.545Z,95.00
2017-07-25T15:11:55.064Z,95.30
2017-07-25T15:14:22.564Z,95.30
2017-07-25T15:16:50.069Z,95.20
2017-07-25T15:19:17.547Z,95.00
2017-07-25T15:21:45.069Z,94.90
2017-07-25T15:24:12.550Z,94.80
2017-07-25T15:26:40.045Z,95.00
2017-07-25T15:29:07.538Z,94.80
2017-07-25T15:31:35.020Z,94.90
2017-07-25T15:34:02.624Z,95.30
2017-07-25T15:36:30.116Z,95.30
2017-07-25T15:38:57.619Z,95.00
2017-07-25T15:41:25.095Z,95.50
2017-07-25T15:43:52.592Z,95.60
2017-07-25T15:46:20.072Z,95.90
2017-07-25T15:48:47.563Z,95.40
2017-07-25T15:51:15.058Z,95.20
2017-07-25T15:53:42.563Z,95.00
2017-07-25T15:56:10.061Z,94.80
2017-07-25T15:58:37.580Z,94.80
2017-07-25T16:01:05.063Z,94.80
2017-07-25T16:03:32.548Z,94.50
2017-07-25T16:06:00.814Z,94.90
2017-07-25T16:08:28.307Z,94.90
2017-07-25T16:10:55.811Z,95.00
2017-07-25T16:13:24.060Z,95.10
2017-07-25T16:15:51.567Z,94.90
2017-07-25T16:18:19.048Z,94.80
2017-07-25T16:20:46.549Z,94.90
2017-07-25T16:23:14.028Z,95.00
2017-07-25T16:25:41.536Z,95.00
2017-07-25T16:28:09.011Z,94.90
2017-07-25T16:30:36.515Z,94.80
2017-07-25T16:33:04.000Z,95.10
2017-07-25T16:35:31.512Z,95.10
2017-07-25T16:37:58.995Z,94.90
2017-07-25T16:40:26.475Z,95.30
2017-07-25T16:42:58.624Z,95.30
2017-07-25T16:45:26.152Z,95.30
2017-07-25T16:47:53.651Z,95.10
2017-07-25T16:50:22.799Z,95.20
2017-07-25T16:52:50.376Z,95.20
2017-07-25T16:55:17.855Z,95.30
2017-07-25T16:57:46.115Z,95.50
2017-07-25T17:00:13.592Z,95.50
2017-07-25T17:02:41.092Z,95.40
2017-07-25T17:05:08.573Z,95.30
2017-07-25T17:07:36.076Z,95.40
2017-07-25T17:10:04.315Z,95.70
2017-07-25T17:12:31.824Z,95.60
2017-07-25T17:14:59.318Z,95.30
2017-07-25T17:17:26.840Z,95.60
2017-07-25T17:19:54.319Z,95.30
2017-07-25T17:22:21.800Z,95.40
2017-07-25T17:24:49.295Z,95.50
2017-07-25T17:27:17.536Z,95.40
2017-07-25T17:29:45.045Z,95.40
2017-07-25T17:32:12.524Z,95.60
2017-07-25T17:34:40.015Z,95.30
2017-07-25T17:37:07.493Z,95.30
2017-07-25T17:39:35.004Z,95.30
2017-07-25T17:42:02.479Z,95.40
2017-07-25T17:44:29.984Z,95.50
2017-07-25T17:46:57.475Z,95.40
2017-07-25T17:49:24.988Z,95.50
2017-07-25T17:51:52.482Z,95.50
2017-07-25T17:54:19.983Z,95.60
2017-07-25T17:56:47.460Z,95.50
2017-07-25T17:59:14.959Z,95.30
2017-07-25T18:01:42.439Z,95.20
2017-07-25T18:04:09.945Z,95.50
2017-07-25T18:06:37.433Z,95.80
2017-07-25T18:09:05.696Z,95.70
2017-07-25T18:11:33.939Z,95.60
2017-07-25T18:14:01.440Z,95.50
2017-07-25T18:16:28.924Z,95.50
2017-07-25T18:18:56.429Z,95.40
2017-07-25T18:21:23.912Z,95.40
2017-07-25T18:23:51.412Z,95.30
2017-07-25T18:26:18.916Z,95.80
2017-07-25T18:28:46.404Z,95.40
2017-07-25T18:31:13.902Z,95.50
2017-07-25T18:33:41.383Z,95.40
2017-07-25T18:36:08.900Z,95.50
2017-07-25T18:38:36.381Z,95.60
2017-07-25T18:41:03.909Z,95.90
2017-07-25T18:43:31.388Z,95.80
2017-07-25T18:45:58.924Z,95.70
2017-07-25T18:48:26.400Z,95.80
2017-07-25T18:50:54.675Z,95.80
2017-07-25T18:53:22.161Z,95.70
2017-07-25T18:55:49.668Z,95.90
2017-07-25T18:58:17.164Z,95.80
2017-07-25T19:00:44.668Z,95.70
2017-07-25T19:03:12.170Z,95.80
2017-07-25T19:05:40.517Z,95.80
2017-07-25T19:08:07.999Z,96.00
2017-07-25T19:10:35.485Z,96.20
2017-07-25T19:13:02.979Z,96.10
2017-07-25T19:15:30.478Z,96.00
2017-07-25T19:17:57.991Z,96.10
2017-07-25T19:20:25.470Z,96.10
2017-07-25T19:22:52.971Z,96.10
2017-07-25T19:25:20.454Z,96.10
2017-07-25T19:27:47.968Z,96.10
2017-07-25T19:30:15.459Z,96.10
2017-07-25T19:32:42.972Z,96.20
2017-07-25T19:35:10.452Z,96.10
2017-07-25T19:37:37.968Z,96.10
2017-07-25T19:40:05.447Z,96.30
2017-07-25T19:42:32.960Z,96.30
2017-07-25T19:45:00.435Z,96.20
2017-07-25T19:47:27.941Z,96.10
2017-07-25T19:49:55.415Z,96.10
2017-07-25T19:52:22.920Z,96.00
2017-07-25T19:54:50.412Z,96.10
2017-07-25T19:57:17.916Z,96.10
2017-07-25T19:59:45.402Z,96.10
2017-07-25T20:02:12.903Z,96.30
2017-07-25T20:04:40.392Z,96.40
2017-07-25T20:07:07.873Z,96.20
2017-07-25T20:09:35.403Z,96.40
2017-07-25T20:12:02.891Z,96.40
2017-07-25T20:14:30.388Z,96.40
2017-07-25T20:16:57.905Z,96.40
2017-07-25T20:19:25.420Z,96.20
2017-07-25T20:21:52.912Z,96.30
2017-07-25T20:24:20.433Z,96.30
2017-07-25T20:26:47.928Z,96.30
2017-07-25T20:29:16.205Z,96.50
2017-07-25T20:31:43.679Z,96.50
2017-07-25T20:34:11.183Z,96.40
2017-07-25T20:36:39.456Z,96.40
2017-07-25T20:39:06.966Z,96.30
2017-07-25T20:41:34.443Z,96.30
2017-07-25T20:44:01.961Z,96.30
2017-07-25T20:46:29.446Z,96.40
2017-07-25T20:48:56.965Z,96.60
2017-07-25T20:51:24.460Z,96.60
2017-07-25T20:53:51.935Z,96.60
2017-07-25T20:56:20.276Z,96.70
2017-07-25T20:58:47.756Z,96.40
2017-07-25T21:01:15.268Z,96.50
2017-07-25T21:03:42.772Z,96.50
2017-07-25T21:06:10.306Z,96.40
2017-07-25T21:08:37.801Z,96.60
2017-07-25T21:11:05.305Z,96.80
2017-07-25T21:13:32.812Z,96.80
2017-07-25T21:16:00.311Z,96.90
2017-07-25T21:18:27.804Z,96.90
2017-07-25T21:20:55.312Z,96.90
2017-07-25T21:23:22.797Z,96.80
2017-07-25T21:25:50.308Z,96.80
2017-07-25T21:28:17.816Z,96.80
2017-07-25T21:30:45.308Z,96.70
2017-07-25T21:33:13.547Z,96.70
2017-07-25T21:35:41.845Z,96.90
2017-07-25T21:38:09.341Z,96.60
2017-07-25T21:40:36.819Z,96.70
2017-07-25T21:43:04.343Z,96.80
2017-07-25T21:45:31.827Z,96.60
2017-07-25T21:47:59.323Z,96.60
2017-07-25T21:50:26.815Z,96.50
2017-07-25T21:52:54.315Z,96.60
2017-07-25T21:55:21.797Z,96.70
2017-07-25T21:57:49.299Z,96.50
2017-07-25T22:00:17.544Z,96.50
2017-07-25T22:03:08.756Z,96.50
2017-07-25T22:05:36.244Z,96.60
2017-07-25T22:08:03.743Z,96.60
2017-07-25T22:10:31.220Z,96.80
2017-07-25T22:12:58.740Z,96.70
2017-07-25T22:15:26.236Z,96.80
2017-07-25T22:17:53.736Z,97.00
2017-07-25T22:20:21.226Z,96.90
2017-07-25T22:22:48.721Z,96.90
2017-07-25T22:25:16.204Z,97.00
2017-07-25T22:27:43.711Z,96.90
2017-07-25T22:30:11.195Z,96.90
2017-07-25T22:32:38.696Z,96.90
2017-07-25T22:35:06.187Z,96.90
2017-07-25T22:37:33.663Z,96.90
2017-07-25T22:40:01.180Z,96.80
2017-07-25T22:42:28.669Z,96.90
2017-07-25T22:44:56.174Z,96.90
2017-07-25T22:47:23.662Z,96.90
2017-07-25T22:49:51.181Z,96.90
2017-07-25T22:52:18.693Z,97.00
2017-07-25T22:54:46.198Z,97.00
2017-07-25T22:57:13.672Z,97.00
2017-07-25T22:59:41.167Z,97.00
2017-07-25T23:02:08.664Z,97.40
2017-07-25T23:04:36.168Z,97.50
2017-07-25T23:07:03.643Z,97.10
2017-07-25T23:09:31.159Z,97.00
2017-07-25T23:11:58.648Z,97.30
2017-07-25T23:14:26.891Z,97.20
2017-07-25T23:16:54.400Z,97.10
2017-07-25T23:19:21.889Z,97.20
2017-07-25T23:21:49.409Z,97.20
2017-07-25T23:24:16.904Z,97.30
2017-07-25T23:26:44.428Z,97.30
2017-07-25T23:29:11.923Z,97.40
2017-07-25T23:31:39.433Z,97.30
2017-07-25T23:34:06.920Z,97.50
2017-07-25T23:36:34.421Z,97.60
2017-07-25T23:39:01.915Z,97.40
2017-07-25T23:41:29.420Z,97.40
2017-07-25T23:43:56.916Z,97.40
2017-07-25T23:46:25.191Z,97.10
2017-07-25T23:48:52.677Z,97.10
2017-07-25T23:51:20.188Z,97.40
2017-07-25T23:53:47.668Z,97.20
2017-07-25T23:56:15.195Z,97.40
2017-07-25T23:58:42.678Z,97.60
